createdAt,value
2023-05-02T00:00:36.555Z,2.03
2023-05-02T00:03:05.626Z,1.90
2023-05-02T00:05:35.747Z,2.00
2023-05-02T00:08:03.767Z,2.20
2023-05-02T00:10:31.623Z,2.28
2023-05-02T00:12:59.472Z,2.05
2023-05-02T00:15:27.990Z,2.50
2023-05-02T00:17:55.940Z,2.22
2023-05-02T00:20:24.049Z,2.30
2023-05-02T00:22:53.220Z,2.05
2023-05-02T00:25:21.301Z,1.85
2023-05-02T00:27:51.053Z,2.13
2023-05-02T00:30:21.077Z,2.28
2023-05-02T00:32:48.969Z,1.92
2023-05-02T00:35:16.909Z,1.88
2023-05-02T00:37:44.750Z,2.13
2023-05-02T00:40:15.113Z,1.80
2023-05-02T00:42:42.976Z,1.80
2023-05-02T00:45:12.416Z,2.60
2023-05-02T00:47:40.410Z,2.20
2023-05-02T00:50:09.279Z,2.10
2023-05-02T00:52:38.330Z,2.13
2023-05-02T00:55:07.949Z,2.40
2023-05-02T00:57:37.195Z,2.13
2023-05-02T01:00:06.976Z,2.35
2023-05-02T01:02:44.547Z,2.40
2023-05-02T01:05:20.156Z,2.20
2023-05-02T01:08:11.692Z,2.20
2023-05-02T01:10:49.942Z,2.13
2023-05-02T01:13:23.224Z,2.20
2023-05-02T01:15:53.524Z,1.83
2023-05-02T01:18:24.889Z,2.38
2023-05-02T01:20:58.680Z,2.00
2023-05-02T01:23:33.926Z,2.10
2023-05-02T01:26:18.570Z,2.58
2023-05-02T01:29:06.957Z,2.55
2023-05-02T01:31:37.738Z,2.10
2023-05-02T01:34:09.992Z,2.05
2023-05-02T01:36:43.109Z,2.20
2023-05-02T01:39:12.171Z,2.80
2023-05-02T01:41:41.723Z,3.15
2023-05-02T01:44:12.589Z,2.83
2023-05-02T01:46:43.774Z,2.63
2023-05-02T01:49:12.532Z,2.67
2023-05-02T01:51:47.111Z,2.60
2023-05-02T01:54:18.200Z,2.78
2023-05-02T01:56:47.270Z,3.25
2023-05-02T01:59:20.183Z,2.58
2023-05-02T02:01:51.556Z,2.60
2023-05-02T02:04:21.829Z,3.55
2023-05-02T02:06:54.592Z,2.97
2023-05-02T02:09:22.717Z,3.30
2023-05-02T02:11:54.920Z,2.85
2023-05-02T02:14:28.980Z,2.88
2023-05-02T02:17:02.472Z,2.83
2023-05-02T02:19:32.553Z,3.40
2023-05-02T02:22:01.534Z,3.30
2023-05-02T02:24:30.024Z,2.70
2023-05-02T02:26:57.911Z,3.45
2023-05-02T02:29:27.134Z,3.10
2023-05-02T02:31:54.929Z,3.72
2023-05-02T02:34:23.136Z,3.47
2023-05-02T02:36:56.269Z,3.97
2023-05-02T02:39:36.872Z,3.60
2023-05-02T02:42:12.864Z,3.30
2023-05-02T02:44:50.075Z,3.35
2023-05-02T02:47:26.001Z,2.58
2023-05-02T02:50:07.373Z,2.80
2023-05-02T02:52:44.550Z,4.35
2023-05-02T02:55:20.559Z,2.35
2023-05-02T02:57:54.424Z,4.30
2023-05-02T03:00:28.351Z,4.55
2023-05-02T03:02:57.567Z,4.18
2023-05-02T03:05:26.386Z,3.50
2023-05-02T03:07:54.306Z,4.82
2023-05-02T03:10:24.176Z,5.55
2023-05-02T03:12:55.493Z,4.35
2023-05-02T03:15:47.935Z,4.20
2023-05-02T03:18:16.433Z,4.40
2023-05-02T03:20:44.497Z,4.78
2023-05-02T03:23:12.308Z,3.85
2023-05-02T03:25:40.632Z,4.03
2023-05-02T03:28:12.328Z,4.83
2023-05-02T03:30:43.152Z,3.40
2023-05-02T03:33:11.147Z,3.75
2023-05-02T03:35:42.373Z,4.60
2023-05-02T03:38:11.879Z,4.22
2023-05-02T03:40:39.982Z,3.78
2023-05-02T03:43:11.495Z,4.50
2023-05-02T03:45:39.818Z,4.55
2023-05-02T03:48:09.129Z,4.13
2023-05-02T03:50:37.754Z,4.35
2023-05-02T03:53:06.215Z,4.25
2023-05-02T03:55:43.974Z,4.45
2023-05-02T03:58:18.706Z,3.55
2023-05-02T04:00:47.431Z,3.88
2023-05-02T04:03:17.745Z,6.03
2023-05-02T04:05:46.512Z,4.75
2023-05-02T04:08:17.214Z,6.38
2023-05-02T04:10:45.570Z,4.32
2023-05-02T04:13:14.474Z,5.80
2023-05-02T04:15:46.793Z,6.03
2023-05-02T04:18:19.561Z,5.28
2023-05-02T04:20:47.741Z,5.68
2023-05-02T04:23:18.590Z,5.72
2023-05-02T04:25:53.874Z,5.53
2023-05-02T04:28:24.130Z,7.45
2023-05-02T04:30:53.755Z,6.82
2023-05-02T04:33:25.699Z,7.85
2023-05-02T04:35:55.344Z,6.15
2023-05-02T04:38:24.221Z,5.50
2023-05-02T04:40:52.873Z,5.82
2023-05-02T04:43:26.466Z,6.60
2023-05-02T04:45:59.653Z,6.68
2023-05-02T04:48:33.606Z,6.30
2023-05-02T04:51:01.525Z,6.10
2023-05-02T04:53:31.095Z,6.82
2023-05-02T04:55:59.113Z,5.55
2023-05-02T04:58:26.932Z,6.90
2023-05-02T05:01:01.953Z,6.68
2023-05-02T05:03:30.807Z,8.13
2023-05-02T05:06:00.855Z,5.90
2023-05-02T05:08:29.313Z,5.60
2023-05-02T05:10:58.087Z,6.80
2023-05-02T05:13:27.004Z,7.43
2023-05-02T05:15:54.934Z,8.90
2023-05-02T05:18:26.946Z,8.10
2023-05-02T05:20:54.817Z,9.10
2023-05-02T05:23:24.199Z,8.20
2023-05-02T05:25:52.071Z,9.02
2023-05-02T05:28:19.931Z,10.52
2023-05-02T05:30:48.236Z,10.73
2023-05-02T05:33:20.304Z,8.30
2023-05-02T05:35:48.226Z,11.40
2023-05-02T05:38:16.080Z,11.90
2023-05-02T05:40:50.834Z,11.82
2023-05-02T05:43:19.005Z,10.32
2023-05-02T05:45:46.801Z,13.48
2023-05-02T05:48:15.086Z,12.43
2023-05-02T05:50:46.460Z,13.00
2023-05-02T05:53:15.090Z,14.07
2023-05-02T05:55:44.490Z,13.25
2023-05-02T05:58:14.239Z,13.38
2023-05-02T06:00:43.688Z,12.90
2023-05-02T06:03:11.795Z,13.32
2023-05-02T06:05:39.678Z,12.13
2023-05-02T06:08:08.698Z,14.40
2023-05-02T06:10:36.496Z,14.75
2023-05-02T06:13:04.889Z,14.65
2023-05-02T06:15:38.087Z,13.30
2023-05-02T06:18:07.248Z,13.85
2023-05-02T06:20:36.748Z,14.32
2023-05-02T06:23:04.602Z,11.43
2023-05-02T06:25:33.844Z,11.80
2023-05-02T06:28:01.707Z,13.50
2023-05-02T06:30:29.484Z,13.13
2023-05-02T06:32:58.667Z,12.68
2023-05-02T06:35:26.477Z,11.75
2023-05-02T06:37:54.271Z,12.52
2023-05-02T06:40:22.102Z,11.35
2023-05-02T06:42:49.889Z,10.63
2023-05-02T06:45:17.876Z,13.32
2023-05-02T06:47:45.913Z,12.30
2023-05-02T06:50:15.048Z,13.90
2023-05-02T06:52:42.863Z,12.85
2023-05-02T06:55:10.961Z,11.50
2023-05-02T06:57:38.788Z,10.93
2023-05-02T07:00:07.964Z,9.13
2023-05-02T07:02:35.858Z,6.90
2023-05-02T07:05:03.630Z,6.93
2023-05-02T07:07:32.812Z,6.15
2023-05-02T07:10:00.912Z,4.63
2023-05-02T07:12:28.924Z,4.28
2023-05-02T07:14:56.801Z,4.50
2023-05-02T07:17:25.649Z,4.57
2023-05-02T07:19:53.609Z,4.80
2023-05-02T07:22:22.084Z,4.10
2023-05-02T07:24:58.836Z,3.88
2023-05-02T07:27:26.659Z,5.15
2023-05-02T07:29:54.436Z,5.40
2023-05-02T07:32:22.768Z,7.95
2023-05-02T07:34:54.055Z,8.70
2023-05-02T07:37:22.132Z,7.25
2023-05-02T07:39:51.315Z,7.40
2023-05-02T07:42:19.162Z,9.07
2023-05-02T07:44:46.976Z,8.38
2023-05-02T07:47:14.759Z,7.35
2023-05-02T07:49:42.558Z,6.15
2023-05-02T07:52:10.331Z,6.63
2023-05-02T07:54:38.160Z,6.55
2023-05-02T07:57:08.630Z,7.90
2023-05-02T07:59:36.598Z,9.48
2023-05-02T08:02:04.410Z,9.90
2023-05-02T08:04:32.316Z,7.68
2023-05-02T08:07:00.565Z,8.57
2023-05-02T08:09:28.472Z,7.85
2023-05-02T08:11:56.250Z,9.00
2023-05-02T08:14:25.406Z,9.30
2023-05-02T08:16:53.482Z,10.18
2023-05-02T08:19:21.335Z,10.00
2023-05-02T08:21:49.269Z,7.47
2023-05-02T08:24:17.141Z,6.68
2023-05-02T08:26:44.922Z,7.55
2023-05-02T08:29:12.753Z,7.20
2023-05-02T08:31:42.215Z,3.28
2023-05-02T08:34:10.163Z,1.95
2023-05-02T08:36:38.262Z,1.05
2023-05-02T08:39:08.209Z,1.05
2023-05-02T08:41:36.212Z,1.25
2023-05-02T08:44:04.885Z,1.10
2023-05-02T08:46:36.331Z,1.35
2023-05-02T08:49:07.542Z,1.10
2023-05-02T08:51:38.544Z,1.17
2023-05-02T08:54:09.551Z,1.37
2023-05-02T08:56:38.612Z,1.73
2023-05-02T08:59:08.126Z,1.70
2023-05-02T09:01:38.230Z,1.65
2023-05-02T09:04:07.737Z,2.22
2023-05-02T09:06:37.491Z,2.10
2023-05-02T09:09:05.378Z,2.42
2023-05-02T09:11:33.286Z,2.42
2023-05-02T09:14:04.137Z,2.70
2023-05-02T09:16:40.598Z,2.88
2023-05-02T09:19:10.930Z,3.30
2023-05-02T09:21:41.335Z,3.55
2023-05-02T09:24:17.243Z,3.58
2023-05-02T09:26:57.297Z,3.00
2023-05-02T09:29:25.125Z,4.47
2023-05-02T09:31:56.281Z,3.63
2023-05-02T09:34:26.004Z,3.23
2023-05-02T09:36:54.770Z,3.97
2023-05-02T09:39:25.778Z,3.90
2023-05-02T09:41:54.833Z,3.83
2023-05-02T09:44:24.201Z,3.42
2023-05-02T09:46:54.824Z,3.85
2023-05-02T09:49:41.152Z,3.88
2023-05-02T09:52:13.249Z,4.20
2023-05-02T09:54:41.193Z,4.88
2023-05-02T09:57:10.630Z,5.20
2023-05-02T09:59:39.768Z,5.07
2023-05-02T10:02:10.475Z,5.35
2023-05-02T10:04:40.497Z,5.55
2023-05-02T10:07:10.585Z,4.63
2023-05-02T10:09:44.084Z,5.55
2023-05-02T10:12:16.709Z,6.55
2023-05-02T10:14:50.724Z,5.80
2023-05-02T10:17:24.248Z,5.93
2023-05-02T10:19:58.472Z,6.22
2023-05-02T10:22:27.635Z,6.07
2023-05-02T10:24:55.966Z,6.80
2023-05-02T10:27:23.925Z,7.32
2023-05-02T10:29:52.993Z,6.65
2023-05-02T10:32:23.188Z,6.55
2023-05-02T10:34:53.695Z,7.07
2023-05-02T10:37:21.909Z,6.47
2023-05-02T10:39:49.730Z,7.13
2023-05-02T10:42:18.738Z,7.05
2023-05-02T10:44:46.628Z,6.88
2023-05-02T10:47:21.317Z,6.68
2023-05-02T10:49:54.964Z,6.28
2023-05-02T10:52:30.748Z,6.25
2023-05-02T10:55:21.753Z,6.15
2023-05-02T10:58:24.332Z,6.60
2023-05-02T11:00:52.373Z,6.35
2023-05-02T11:03:58.188Z,6.72
2023-05-02T11:06:28.599Z,6.53
2023-05-02T11:09:31.887Z,6.60
2023-05-02T11:14:48.490Z,5.65
2023-05-02T11:17:17.749Z,5.65
2023-05-02T11:20:27.936Z,5.90
2023-05-02T11:23:24.582Z,5.57
2023-05-02T11:25:53.429Z,5.75
2023-05-02T11:28:48.295Z,5.82
2023-05-02T11:32:02.605Z,6.53
2023-05-02T11:34:40.324Z,7.00
2023-05-02T11:37:15.574Z,6.55
2023-05-02T11:39:45.842Z,6.40
2023-05-02T11:42:31.513Z,6.57
2023-05-02T11:45:01.691Z,6.50
2023-05-02T11:47:30.472Z,6.35
2023-05-02T11:49:59.881Z,6.38
2023-05-02T11:52:27.797Z,6.07
2023-05-02T11:54:57.358Z,6.38
2023-05-02T11:57:25.524Z,6.32
2023-05-02T11:59:53.924Z,6.60
2023-05-02T12:02:22.359Z,7.35
2023-05-02T12:04:50.277Z,7.22
2023-05-02T12:07:18.113Z,6.78
2023-05-02T12:09:53.131Z,7.38
2023-05-02T12:12:22.995Z,7.55
2023-05-02T12:14:50.917Z,6.82
2023-05-02T12:17:18.837Z,7.93
2023-05-02T12:19:48.606Z,6.88
2023-05-02T12:22:16.991Z,6.85
2023-05-02T12:24:44.973Z,6.93
2023-05-02T12:27:13.823Z,6.97
2023-05-02T12:29:45.114Z,6.95
2023-05-02T12:32:13.651Z,7.57
2023-05-02T12:34:41.963Z,7.32
2023-05-02T12:37:11.774Z,8.32
2023-05-02T12:39:40.709Z,7.78
2023-05-02T12:42:12.709Z,7.32
2023-05-02T12:44:43.789Z,7.68
2023-05-02T12:47:13.191Z,7.32
2023-05-02T12:49:51.450Z,7.22
2023-05-02T12:52:19.700Z,7.53
2023-05-02T12:54:47.783Z,5.38
2023-05-02T12:57:25.867Z,6.82
2023-05-02T12:59:55.497Z,6.50
2023-05-02T13:02:23.663Z,6.18
2023-05-02T13:04:52.144Z,5.95
2023-05-02T13:07:19.919Z,6.72
2023-05-02T13:09:47.908Z,6.25
2023-05-02T13:12:15.868Z,5.32
2023-05-02T13:14:43.690Z,5.78
2023-05-02T13:17:13.452Z,6.80
2023-05-02T13:19:50.413Z,6.68
2023-05-02T13:22:21.979Z,6.35
2023-05-02T13:24:49.858Z,6.38
2023-05-02T13:27:18.552Z,5.30
2023-05-02T13:29:46.384Z,5.50
2023-05-02T13:32:15.583Z,6.43
2023-05-02T13:34:44.268Z,4.68
2023-05-02T13:37:12.109Z,5.70
2023-05-02T13:39:39.899Z,6.38
2023-05-02T13:42:08.039Z,6.35
2023-05-02T13:44:36.434Z,6.53
2023-05-02T13:47:04.361Z,4.65
2023-05-02T13:49:33.522Z,4.45
2023-05-02T13:52:01.416Z,5.03
2023-05-02T13:54:29.258Z,4.95
2023-05-02T13:56:57.017Z,6.05
2023-05-02T13:59:24.781Z,5.70
2023-05-02T14:01:52.689Z,5.38
2023-05-02T14:04:21.559Z,4.60
2023-05-02T14:06:51.497Z,4.60
2023-05-02T14:09:19.569Z,5.25
2023-05-02T14:11:48.684Z,4.35
2023-05-02T14:14:16.494Z,4.93
2023-05-02T14:16:44.320Z,4.88
2023-05-02T14:19:12.267Z,4.30
2023-05-02T14:21:40.035Z,5.50
2023-05-02T14:24:09.374Z,4.82
2023-05-02T14:26:37.170Z,4.47
2023-05-02T14:29:05.265Z,4.38
2023-05-02T14:31:33.072Z,4.50
2023-05-02T14:34:00.940Z,4.15
2023-05-02T14:36:28.745Z,4.47
2023-05-02T14:38:56.572Z,4.13
2023-05-02T14:41:26.435Z,4.13
2023-05-02T14:43:54.412Z,4.32
2023-05-02T14:46:22.240Z,4.15
2023-05-02T14:48:50.061Z,4.32
2023-05-02T14:51:17.808Z,3.92
2023-05-02T14:53:45.595Z,4.05
2023-05-02T14:56:15.732Z,4.40
2023-05-02T14:58:45.191Z,3.70
2023-05-02T15:01:19.290Z,3.80
2023-05-02T15:04:04.158Z,4.10
2023-05-02T15:06:35.032Z,4.13
2023-05-02T15:09:03.316Z,4.00
2023-05-02T15:11:31.207Z,3.75
2023-05-02T15:14:00.390Z,4.05
2023-05-02T15:16:28.241Z,3.85
2023-05-02T15:18:56.152Z,3.90
2023-05-02T15:21:24.097Z,3.25
2023-05-02T15:23:51.918Z,3.53
2023-05-02T15:26:19.768Z,3.90
2023-05-02T15:28:47.636Z,4.03
2023-05-02T15:31:16.848Z,3.85
2023-05-02T15:33:44.676Z,3.55
2023-05-02T15:36:12.556Z,3.55
2023-05-02T15:38:42.610Z,3.50
2023-05-02T15:41:11.942Z,3.03
2023-05-02T15:43:39.991Z,4.05
2023-05-02T15:46:07.928Z,3.58
2023-05-02T15:48:37.086Z,3.17
2023-05-02T15:51:06.548Z,3.70
2023-05-02T15:53:35.070Z,3.28
2023-05-02T15:56:02.960Z,2.60
2023-05-02T15:58:30.824Z,2.67
2023-05-02T16:00:58.627Z,2.88
2023-05-02T16:03:26.501Z,2.10
2023-05-02T16:05:57.959Z,2.80
2023-05-02T16:08:25.848Z,3.33
2023-05-02T16:10:53.768Z,2.58
2023-05-02T16:13:21.961Z,3.10
2023-05-02T16:15:52.080Z,2.50
2023-05-02T16:18:20.043Z,2.40
2023-05-02T16:20:49.747Z,2.50
2023-05-02T16:23:18.921Z,2.60
2023-05-02T16:25:46.761Z,3.20
2023-05-02T16:28:14.535Z,2.83
2023-05-02T16:30:42.628Z,2.20
2023-05-02T16:33:10.472Z,2.63
2023-05-02T16:35:38.298Z,2.42
2023-05-02T16:38:06.160Z,2.05
2023-05-02T16:40:35.384Z,2.33
2023-05-02T16:43:03.205Z,2.33
2023-05-02T16:45:31.006Z,2.83
2023-05-02T16:47:58.894Z,2.88
2023-05-02T16:50:26.689Z,3.03
2023-05-02T16:52:54.557Z,2.83
2023-05-02T16:55:22.867Z,2.72
2023-05-02T16:57:52.057Z,2.97
2023-05-02T17:00:22.746Z,4.32
2023-05-02T17:02:52.137Z,3.50
2023-05-02T17:05:20.679Z,3.40
2023-05-02T17:07:48.532Z,3.35
2023-05-02T17:10:16.379Z,3.28
2023-05-02T17:12:45.818Z,4.63
2023-05-02T17:15:15.036Z,5.72
2023-05-02T17:17:43.229Z,4.10
2023-05-02T17:20:11.808Z,3.78
2023-05-02T17:22:41.491Z,4.03
2023-05-02T17:25:10.677Z,3.35
2023-05-02T17:27:40.904Z,3.72
2023-05-02T17:30:10.121Z,3.38
2023-05-02T17:32:39.691Z,4.70
2023-05-02T17:35:08.159Z,4.30
2023-05-02T17:37:38.171Z,7.22
2023-05-02T17:40:07.348Z,4.47
2023-05-02T17:42:35.405Z,4.07
2023-05-02T17:45:04.224Z,3.90
2023-05-02T17:47:32.204Z,5.18
2023-05-02T17:50:04.763Z,4.53
2023-05-02T17:52:34.287Z,4.20
2023-05-02T17:55:02.237Z,4.78
2023-05-02T17:57:30.482Z,4.30
2023-05-02T17:59:59.762Z,4.13
2023-05-02T18:02:28.265Z,3.83
2023-05-02T18:04:56.247Z,4.75
2023-05-02T18:07:28.941Z,5.25
2023-05-02T18:09:57.263Z,4.70
2023-05-02T18:12:25.056Z,3.83
2023-05-02T18:14:53.125Z,3.85
2023-05-02T18:17:21.315Z,3.38
2023-05-02T18:19:50.085Z,3.78
2023-05-02T18:22:21.258Z,3.72
2023-05-02T18:24:50.983Z,4.03
2023-05-02T18:27:18.763Z,3.92
2023-05-02T18:29:46.533Z,4.20
2023-05-02T18:32:14.948Z,4.53
2023-05-02T18:34:42.772Z,3.80
2023-05-02T18:37:10.907Z,4.00
2023-05-02T18:39:38.829Z,3.78
2023-05-02T18:42:08.344Z,4.05
2023-05-02T18:44:36.230Z,3.28
2023-05-02T18:47:04.055Z,3.67
2023-05-02T18:49:31.864Z,3.47
2023-05-02T18:51:59.890Z,3.47
2023-05-02T18:54:28.700Z,3.45
2023-05-02T18:56:56.509Z,3.80
2023-05-02T18:59:25.727Z,3.50
2023-05-02T19:01:53.776Z,4.13
2023-05-02T19:04:21.698Z,3.67
2023-05-02T19:06:49.515Z,4.93
2023-05-02T19:09:18.566Z,4.15
2023-05-02T19:11:46.334Z,6.75
2023-05-02T19:14:14.185Z,5.18
2023-05-02T19:16:43.334Z,7.28
2023-05-02T19:19:11.196Z,15.02
2023-05-02T19:21:39.283Z,4.75
2023-05-02T19:24:07.405Z,5.38
2023-05-02T19:26:35.191Z,13.93
2023-05-02T19:29:03.080Z,8.05
2023-05-02T19:31:31.453Z,8.30
2023-05-02T19:34:00.734Z,7.80
2023-05-02T19:36:29.080Z,5.70
2023-05-02T19:38:58.272Z,6.50
2023-05-02T19:41:26.866Z,4.63
2023-05-02T19:43:55.671Z,7.35
2023-05-02T19:46:23.545Z,6.70
2023-05-02T19:48:51.456Z,4.78
2023-05-02T19:51:25.620Z,4.45
2023-05-02T19:53:53.940Z,3.88
2023-05-02T19:56:25.249Z,3.17
2023-05-02T19:58:53.120Z,4.13
2023-05-02T20:01:21.031Z,3.63
2023-05-02T20:03:49.009Z,3.92
2023-05-02T20:06:16.932Z,3.97
2023-05-02T20:08:46.084Z,3.90
2023-05-02T20:11:13.895Z,4.40
2023-05-02T20:13:41.652Z,3.80
2023-05-02T20:16:10.394Z,3.63
2023-05-02T20:18:38.278Z,4.13
2023-05-02T20:21:06.084Z,3.38
2023-05-02T20:23:33.939Z,4.00
2023-05-02T20:26:03.466Z,3.80
2023-05-02T20:28:31.322Z,3.53
2023-05-02T20:30:59.117Z,3.60
2023-05-02T20:33:37.113Z,4.15
2023-05-02T20:36:13.263Z,2.95
2023-05-02T20:38:42.357Z,2.92
2023-05-02T20:41:14.060Z,2.88
2023-05-02T20:43:44.674Z,2.83
2023-05-02T20:46:13.645Z,2.90
2023-05-02T20:48:41.542Z,2.85
2023-05-02T20:51:09.521Z,2.70
2023-05-02T20:53:37.542Z,3.08
2023-05-02T20:56:05.779Z,2.97
2023-05-02T20:58:35.014Z,2.95
2023-05-02T21:01:02.909Z,2.45
2023-05-02T21:03:32.024Z,2.67
2023-05-02T21:06:00.443Z,2.10
2023-05-02T21:08:28.331Z,2.22
2023-05-02T21:10:56.162Z,2.47
2023-05-02T21:13:23.976Z,2.53
2023-05-02T21:15:53.345Z,2.10
2023-05-02T21:18:21.811Z,2.53
2023-05-02T21:20:49.987Z,2.30
2023-05-02T21:23:18.416Z,2.08
2023-05-02T21:25:46.206Z,2.83
2023-05-02T21:28:14.496Z,2.60
2023-05-02T21:30:42.365Z,2.83
2023-05-02T21:33:12.541Z,2.47
2023-05-02T21:35:40.352Z,2.25
2023-05-02T21:38:08.100Z,2.60
2023-05-02T21:40:37.295Z,2.20
2023-05-02T21:43:05.438Z,2.65
2023-05-02T21:45:35.672Z,2.20
2023-05-02T21:48:03.468Z,2.60
2023-05-02T21:50:33.550Z,1.92
2023-05-02T21:53:01.480Z,2.35
2023-05-02T21:55:29.207Z,2.03
2023-05-02T21:57:57.036Z,2.78
2023-05-02T22:00:25.098Z,2.50
2023-05-02T22:06:36.115Z,2.50
2023-05-02T22:09:05.081Z,3.33
2023-05-02T22:11:33.239Z,2.75
2023-05-02T22:14:01.013Z,2.63
2023-05-02T22:16:29.236Z,2.15
2023-05-02T22:18:57.864Z,2.22
2023-05-02T22:21:25.865Z,2.22
2023-05-02T22:23:55.020Z,2.05
2023-05-02T22:26:23.420Z,2.70
2023-05-02T22:28:51.341Z,2.40
2023-05-02T22:31:19.289Z,2.70
2023-05-02T22:33:49.873Z,2.70
2023-05-02T22:36:18.207Z,2.25
2023-05-02T22:38:45.977Z,2.55
2023-05-02T22:41:15.113Z,2.50
2023-05-02T22:43:42.902Z,2.40
2023-05-02T22:46:10.743Z,2.33
2023-05-02T22:48:38.575Z,2.40
2023-05-02T22:51:06.394Z,2.90
2023-05-02T22:53:35.274Z,2.50
2023-05-02T22:56:03.398Z,2.22
2023-05-02T22:58:32.652Z,2.28
2023-05-02T23:01:00.447Z,2.30
2023-05-02T23:03:28.348Z,2.15
2023-05-02T23:05:56.144Z,2.15
2023-05-02T23:08:23.962Z,2.20
2023-05-02T23:10:51.868Z,2.33
2023-05-02T23:13:19.631Z,2.47
2023-05-02T23:15:53.874Z,2.60
2023-05-02T23:18:21.721Z,2.38
2023-05-02T23:20:49.685Z,2.50
2023-05-02T23:23:17.481Z,2.67
2023-05-02T23:25:45.237Z,2.70
2023-05-02T23:28:13.176Z,2.55
2023-05-02T23:30:41.171Z,2.42
2023-05-02T23:33:10.475Z,2.85
2023-05-02T23:35:38.604Z,2.22
2023-05-02T23:38:07.894Z,2.63
2023-05-02T23:40:36.018Z,3.10
2023-05-02T23:43:03.918Z,3.10
2023-05-02T23:45:31.673Z,2.42
2023-05-02T23:47:59.500Z,3.00
2023-05-02T23:50:28.695Z,2.80
2023-05-02T23:52:56.471Z,2.40
2023-05-02T23:55:24.465Z,2.70
2023-05-02T23:57:52.237Z,3.42
